sensor_id;sensor_type;location;lat;lon;timestamp;temperature;humidity
49236;DHT22;35067;48.134;8.378;2023-08-30T00:00:39;10.80;99.90
49236;DHT22;35067;48.134;8.378;2023-08-30T00:01:40;10.60;99.90
49236;DHT22;35067;48.134;8.378;2023-08-30T00:02:40;10.60;99.90
49236;DHT22;35067;48.134;8.378;2023-08-30T00:03:41;10.60;99.90
49236;DHT22;35067;48.134;8.378;2023-08-30T00:04:42;10.70;99.90
49236;DHT22;35067;48.134;8.378;2023-08-30T00:05:43;10.60;99.90
49236;DHT22;35067;48.134;8.378;2023-08-30T00:06:43;10.60;99.90
49236;DHT22;35067;48.134;8.378;2023-08-30T00:07:44;10.60;99.90
49236;DHT22;35067;48.134;8.378;2023-08-30T00:08:45;10.60;99.90
49236;DHT22;35067;48.134;8.378;2023-08-30T00:09:45;10.60;99.90
49236;DHT22;35067;48.134;8.378;2023-08-30T00:10:47;10.70;99.90
49236;DHT22;35067;48.134;8.378;2023-08-30T00:11:48;10.70;99.90
49236;DHT22;35067;48.134;8.378;2023-08-30T00:12:48;10.70;99.90
49236;DHT22;35067;48.134;8.378;2023-08-30T00:13:49;10.70;99.90
49236;DHT22;35067;48.134;8.378;2023-08-30T00:14:51;10.50;99.90
49236;DHT22;35067;48.134;8.378;2023-08-30T00:15:51;10.40;99.90
49236;DHT22;35067;48.134;8.378;2023-08-30T00:16:52;10.40;99.90
49236;DHT22;35067;48.134;8.378;2023-08-30T00:17:53;10.30;99.90
49236;DHT22;35067;48.134;8.378;2023-08-30T00:18:54;10.30;99.90
49236;DHT22;35067;48.134;8.378;2023-08-30T00:19:54;10.30;99.90
49236;DHT22;35067;48.134;8.378;2023-08-30T00:20:55;10.30;99.90
49236;DHT22;35067;48.134;8.378;2023-08-30T00:21:57;10.20;99.90
49236;DHT22;35067;48.134;8.378;2023-08-30T00:22:58;10.20;99.90
49236;DHT22;35067;48.134;8.378;2023-08-30T00:23:59;10.30;99.90
49236;DHT22;35067;48.134;8.378;2023-08-30T00:25:00;10.30;99.90
49236;DHT22;35067;48.134;8.378;2023-08-30T00:26:01;10.30;99.90
49236;DHT22;35067;48.134;8.378;2023-08-30T00:27:02;10.30;99.90
49236;DHT22;35067;48.134;8.378;2023-08-30T00:28:04;10.30;99.90
49236;DHT22;35067;48.134;8.378;2023-08-30T00:29:04;10.30;99.90
49236;DHT22;35067;48.134;8.378;2023-08-30T00:30:05;10.30;99.90
49236;DHT22;35067;48.134;8.378;2023-08-30T00:31:09;10.30;99.90
49236;DHT22;35067;48.134;8.378;2023-08-30T00:32:10;10.20;99.90
49236;DHT22;35067;48.134;8.378;2023-08-30T00:33:10;10.10;99.90
49236;DHT22;35067;48.134;8.378;2023-08-30T00:34:12;10.10;99.90
49236;DHT22;35067;48.134;8.378;2023-08-30T00:35:12;10.00;99.90
49236;DHT22;35067;48.134;8.378;2023-08-30T00:36:13;10.00;99.90
49236;DHT22;35067;48.134;8.378;2023-08-30T00:37:14;10.00;99.90
49236;DHT22;35067;48.134;8.378;2023-08-30T00:38:14;10.00;99.90
49236;DHT22;35067;48.134;8.378;2023-08-30T00:39:16;10.00;99.90
49236;DHT22;35067;48.134;8.378;2023-08-30T00:40:16;10.00;99.90
49236;DHT22;35067;48.134;8.378;2023-08-30T00:41:17;9.90;99.90
49236;DHT22;35067;48.134;8.378;2023-08-30T00:42:18;9.90;99.90
49236;DHT22;35067;48.134;8.378;2023-08-30T00:43:22;9.90;99.90
49236;DHT22;35067;48.134;8.378;2023-08-30T00:44:22;9.90;99.90
49236;DHT22;35067;48.134;8.378;2023-08-30T00:45:23;10.00;99.90
49236;DHT22;35067;48.134;8.378;2023-08-30T00:46:24;9.90;99.90
49236;DHT22;35067;48.134;8.378;2023-08-30T00:47:25;9.90;99.90
49236;DHT22;35067;48.134;8.378;2023-08-30T00:48:26;9.90;99.90
49236;DHT22;35067;48.134;8.378;2023-08-30T00:49:29;9.90;99.90
49236;DHT22;35067;48.134;8.378;2023-08-30T00:50:30;9.90;99.90
49236;DHT22;35067;48.134;8.378;2023-08-30T00:51:31;9.90;99.90
49236;DHT22;35067;48.134;8.378;2023-08-30T00:52:32;9.90;99.90
49236;DHT22;35067;48.134;8.378;2023-08-30T00:53:33;9.90;99.90
49236;DHT22;35067;48.134;8.378;2023-08-30T00:54:34;9.90;99.90
49236;DHT22;35067;48.134;8.378;2023-08-30T00:55:37;9.90;99.90
49236;DHT22;35067;48.134;8.378;2023-08-30T00:56:38;9.90;99.90
49236;DHT22;35067;48.134;8.378;2023-08-30T00:57:38;9.80;99.90
49236;DHT22;35067;48.134;8.378;2023-08-30T00:58:39;9.80;99.90
49236;DHT22;35067;48.134;8.378;2023-08-30T00:59:40;9.70;99.90
49236;DHT22;35067;48.134;8.378;2023-08-30T01:00:41;9.80;99.90
49236;DHT22;35067;48.134;8.378;2023-08-30T01:01:42;9.90;99.90
49236;DHT22;35067;48.134;8.378;2023-08-30T01:02:42;9.90;99.90
49236;DHT22;35067;48.134;8.378;2023-08-30T01:03:43;9.90;99.90
49236;DHT22;35067;48.134;8.378;2023-08-30T01:04:45;9.90;99.90
49236;DHT22;35067;48.134;8.378;2023-08-30T01:05:46;9.80;99.90
49236;DHT22;35067;48.134;8.378;2023-08-30T01:06:47;9.80;99.90
49236;DHT22;35067;48.134;8.378;2023-08-30T01:07:52;9.80;99.90
49236;DHT22;35067;48.134;8.378;2023-08-30T01:08:53;9.80;99.90
49236;DHT22;35067;48.134;8.378;2023-08-30T01:09:54;9.80;99.90
49236;DHT22;35067;48.134;8.378;2023-08-30T01:12:29;9.80;99.90
49236;DHT22;35067;48.134;8.378;2023-08-30T01:13:42;9.80;99.90
49236;DHT22;35067;48.134;8.378;2023-08-30T01:14:52;9.90;99.90
49236;DHT22;35067;48.134;8.378;2023-08-30T01:16:06;9.90;99.90
49236;DHT22;35067;48.134;8.378;2023-08-30T01:17:07;9.90;99.90
49236;DHT22;35067;48.134;8.378;2023-08-30T01:18:11;10.00;99.90
49236;DHT22;35067;48.134;8.378;2023-08-30T01:20:39;10.00;99.90
49236;DHT22;35067;48.134;8.378;2023-08-30T01:21:58;9.90;99.90
49236;DHT22;35067;48.134;8.378;2023-08-30T01:23:27;9.90;99.90
49236;DHT22;35067;48.134;8.378;2023-08-30T01:24:55;9.90;99.90
49236;DHT22;35067;48.134;8.378;2023-08-30T01:26:12;9.80;99.90
49236;DHT22;35067;48.134;8.378;2023-08-30T01:27:15;9.80;99.90
49236;DHT22;35067;48.134;8.378;2023-08-30T01:28:19;9.80;99.90
49236;DHT22;35067;48.134;8.378;2023-08-30T01:29:23;9.80;99.90
49236;DHT22;35067;48.134;8.378;2023-08-30T01:30:25;9.70;99.90
49236;DHT22;35067;48.134;8.378;2023-08-30T01:31:27;9.80;99.90
49236;DHT22;35067;48.134;8.378;2023-08-30T01:32:31;9.80;99.90
49236;DHT22;35067;48.134;8.378;2023-08-30T01:33:34;9.80;99.90
49236;DHT22;35067;48.134;8.378;2023-08-30T01:34:40;9.80;99.90
49236;DHT22;35067;48.134;8.378;2023-08-30T01:35:43;9.80;99.90
49236;DHT22;35067;48.134;8.378;2023-08-30T01:36:44;9.70;99.90
49236;DHT22;35067;48.134;8.378;2023-08-30T01:37:46;9.70;99.90
49236;DHT22;35067;48.134;8.378;2023-08-30T01:38:47;9.60;99.90
49236;DHT22;35067;48.134;8.378;2023-08-30T01:39:49;9.50;99.90
49236;DHT22;35067;48.134;8.378;2023-08-30T01:40:51;9.50;99.90
49236;DHT22;35067;48.134;8.378;2023-08-30T01:41:52;9.60;99.90
49236;DHT22;35067;48.134;8.378;2023-08-30T01:42:59;9.60;99.90
49236;DHT22;35067;48.134;8.378;2023-08-30T01:44:01;9.60;99.90
49236;DHT22;35067;48.134;8.378;2023-08-30T01:45:05;9.60;99.90
49236;DHT22;35067;48.134;8.378;2023-08-30T01:46:08;9.60;99.90
49236;DHT22;35067;48.134;8.378;2023-08-30T01:47:09;9.60;99.90
49236;DHT22;35067;48.134;8.378;2023-08-30T01:48:15;9.60;99.90
49236;DHT22;35067;48.134;8.378;2023-08-30T01:49:16;9.60;99.90
49236;DHT22;35067;48.134;8.378;2023-08-30T01:50:18;9.50;99.90
49236;DHT22;35067;48.134;8.378;2023-08-30T01:51:20;9.60;99.90
49236;DHT22;35067;48.134;8.378;2023-08-30T01:52:22;9.50;99.90
49236;DHT22;35067;48.134;8.378;2023-08-30T01:53:24;9.50;99.90
49236;DHT22;35067;48.134;8.378;2023-08-30T01:54:25;9.50;99.90
49236;DHT22;35067;48.134;8.378;2023-08-30T01:55:28;9.50;99.90
49236;DHT22;35067;48.134;8.378;2023-08-30T01:56:30;9.40;99.90
49236;DHT22;35067;48.134;8.378;2023-08-30T01:57:31;9.50;99.90
49236;DHT22;35067;48.134;8.378;2023-08-30T01:58:32;9.50;99.90
49236;DHT22;35067;48.134;8.378;2023-08-30T01:59:32;9.50;99.90
49236;DHT22;35067;48.134;8.378;2023-08-30T02:00:37;9.40;99.90
49236;DHT22;35067;48.134;8.378;2023-08-30T02:01:39;9.30;99.90
49236;DHT22;35067;48.134;8.378;2023-08-30T02:02:41;9.20;99.90
49236;DHT22;35067;48.134;8.378;2023-08-30T02:03:44;9.20;99.90
49236;DHT22;35067;48.134;8.378;2023-08-30T02:04:45;9.20;99.90
49236;DHT22;35067;48.134;8.378;2023-08-30T02:06:14;9.20;99.90
49236;DHT22;35067;48.134;8.378;2023-08-30T02:07:28;9.20;99.90
49236;DHT22;35067;48.134;8.378;2023-08-30T02:08:41;9.30;99.90
49236;DHT22;35067;48.134;8.378;2023-08-30T02:11:10;9.10;99.90
49236;DHT22;35067;48.134;8.378;2023-08-30T02:12:15;9.10;99.90
49236;DHT22;35067;48.134;8.378;2023-08-30T02:13:17;9.10;99.90
49236;DHT22;35067;48.134;8.378;2023-08-30T02:14:20;9.20;99.90
49236;DHT22;35067;48.134;8.378;2023-08-30T02:15:24;9.20;99.90
49236;DHT22;35067;48.134;8.378;2023-08-30T02:16:27;9.20;99.90
49236;DHT22;35067;48.134;8.378;2023-08-30T02:17:29;9.20;99.90
49236;DHT22;35067;48.134;8.378;2023-08-30T02:18:30;9.20;99.90
49236;DHT22;35067;48.134;8.378;2023-08-30T02:19:32;9.20;99.90
49236;DHT22;35067;48.134;8.378;2023-08-30T02:20:33;9.20;99.90
49236;DHT22;35067;48.134;8.378;2023-08-30T02:21:34;9.30;99.90
49236;DHT22;35067;48.134;8.378;2023-08-30T02:22:35;9.30;99.90
49236;DHT22;35067;48.134;8.378;2023-08-30T02:23:36;9.30;99.90
49236;DHT22;35067;48.134;8.378;2023-08-30T02:24:36;9.40;99.90
49236;DHT22;35067;48.134;8.378;2023-08-30T02:25:37;9.40;99.90
49236;DHT22;35067;48.134;8.378;2023-08-30T02:26:38;9.40;99.90
49236;DHT22;35067;48.134;8.378;2023-08-30T02:27:39;9.50;99.90
49236;DHT22;35067;48.134;8.378;2023-08-30T02:28:39;9.50;99.90
49236;DHT22;35067;48.134;8.378;2023-08-30T02:29:40;9.40;99.90
49236;DHT22;35067;48.134;8.378;2023-08-30T02:30:41;9.40;99.90
49236;DHT22;35067;48.134;8.378;2023-08-30T02:31:41;9.30;99.90
49236;DHT22;35067;48.134;8.378;2023-08-30T02:32:42;9.30;99.90
49236;DHT22;35067;48.134;8.378;2023-08-30T02:33:43;9.30;99.90
49236;DHT22;35067;48.134;8.378;2023-08-30T02:34:43;9.20;99.90
49236;DHT22;35067;48.134;8.378;2023-08-30T02:35:44;9.20;99.90
49236;DHT22;35067;48.134;8.378;2023-08-30T02:36:45;9.20;99.90
49236;DHT22;35067;48.134;8.378;2023-08-30T02:37:46;9.20;99.90
49236;DHT22;35067;48.134;8.378;2023-08-30T02:38:47;9.20;99.90
49236;DHT22;35067;48.134;8.378;2023-08-30T02:39:47;9.20;99.90
49236;DHT22;35067;48.134;8.378;2023-08-30T02:40:48;9.20;99.90
49236;DHT22;35067;48.134;8.378;2023-08-30T02:41:49;9.20;99.90
49236;DHT22;35067;48.134;8.378;2023-08-30T02:42:50;9.20;99.90
49236;DHT22;35067;48.134;8.378;2023-08-30T02:43:50;9.20;99.90
49236;DHT22;35067;48.134;8.378;2023-08-30T02:44:52;9.10;99.90
49236;DHT22;35067;48.134;8.378;2023-08-30T02:45:53;9.20;99.90
49236;DHT22;35067;48.134;8.378;2023-08-30T02:46:54;9.10;99.90
49236;DHT22;35067;48.134;8.378;2023-08-30T02:47:57;9.10;99.90
49236;DHT22;35067;48.134;8.378;2023-08-30T02:48:58;9.10;99.90
49236;DHT22;35067;48.134;8.378;2023-08-30T02:49:59;9.10;99.90
49236;DHT22;35067;48.134;8.378;2023-08-30T02:51:00;9.00;99.90
49236;DHT22;35067;48.134;8.378;2023-08-30T02:52:00;9.00;99.90
49236;DHT22;35067;48.134;8.378;2023-08-30T02:53:01;9.00;99.90
49236;DHT22;35067;48.134;8.378;2023-08-30T02:54:02;9.00;99.90
49236;DHT22;35067;48.134;8.378;2023-08-30T02:55:04;8.90;99.90
49236;DHT22;35067;48.134;8.378;2023-08-30T02:56:05;8.90;99.90
49236;DHT22;35067;48.134;8.378;2023-08-30T02:57:06;9.00;99.90
49236;DHT22;35067;48.134;8.378;2023-08-30T02:58:07;9.00;99.90
49236;DHT22;35067;48.134;8.378;2023-08-30T02:59:07;9.00;99.90
49236;DHT22;35067;48.134;8.378;2023-08-30T03:00:08;8.90;99.90
49236;DHT22;35067;48.134;8.378;2023-08-30T03:01:09;8.90;99.90
49236;DHT22;35067;48.134;8.378;2023-08-30T03:02:10;8.90;99.90
49236;DHT22;35067;48.134;8.378;2023-08-30T03:03:11;8.90;99.90
49236;DHT22;35067;48.134;8.378;2023-08-30T03:04:12;8.90;99.90
49236;DHT22;35067;48.134;8.378;2023-08-30T03:05:13;8.90;99.90
49236;DHT22;35067;48.134;8.378;2023-08-30T03:06:13;8.90;99.90
49236;DHT22;35067;48.134;8.378;2023-08-30T03:07:14;8.80;99.90
49236;DHT22;35067;48.134;8.378;2023-08-30T03:08:15;8.90;99.90
49236;DHT22;35067;48.134;8.378;2023-08-30T03:09:16;8.80;99.90
49236;DHT22;35067;48.134;8.378;2023-08-30T03:10:17;8.90;99.90
49236;DHT22;35067;48.134;8.378;2023-08-30T03:11:17;8.90;99.90
49236;DHT22;35067;48.134;8.378;2023-08-30T03:12:18;8.80;99.90
49236;DHT22;35067;48.134;8.378;2023-08-30T03:13:19;8.80;99.90
49236;DHT22;35067;48.134;8.378;2023-08-30T03:14:19;8.80;99.90
49236;DHT22;35067;48.134;8.378;2023-08-30T03:15:20;8.70;99.90
49236;DHT22;35067;48.134;8.378;2023-08-30T03:16:21;8.80;99.90
49236;DHT22;35067;48.134;8.378;2023-08-30T03:17:21;8.80;99.90
49236;DHT22;35067;48.134;8.378;2023-08-30T03:18:22;8.80;99.90
49236;DHT22;35067;48.134;8.378;2023-08-30T03:19:23;8.80;99.90
49236;DHT22;35067;48.134;8.378;2023-08-30T03:20:24;8.80;99.90
49236;DHT22;35067;48.134;8.378;2023-08-30T03:21:24;8.70;99.90
49236;DHT22;35067;48.134;8.378;2023-08-30T03:22:25;8.70;99.90
49236;DHT22;35067;48.134;8.378;2023-08-30T03:23:26;8.60;99.90
49236;DHT22;35067;48.134;8.378;2023-08-30T03:24:27;8.60;99.90
49236;DHT22;35067;48.134;8.378;2023-08-30T03:25:30;8.60;99.90
49236;DHT22;35067;48.134;8.378;2023-08-30T03:26:31;8.60;99.90
49236;DHT22;35067;48.134;8.378;2023-08-30T03:27:33;8.60;99.90
49236;DHT22;35067;48.134;8.378;2023-08-30T03:28:33;8.50;99.90
49236;DHT22;35067;48.134;8.378;2023-08-30T03:29:34;8.50;99.90
49236;DHT22;35067;48.134;8.378;2023-08-30T03:30:35;8.50;99.90
49236;DHT22;35067;48.134;8.378;2023-08-30T03:31:35;8.50;99.90
49236;DHT22;35067;48.134;8.378;2023-08-30T03:32:36;8.50;99.90
49236;DHT22;35067;48.134;8.378;2023-08-30T03:33:37;8.60;99.90
49236;DHT22;35067;48.134;8.378;2023-08-30T03:34:37;8.50;99.90
49236;DHT22;35067;48.134;8.378;2023-08-30T03:35:38;8.50;99.90
49236;DHT22;35067;48.134;8.378;2023-08-30T03:36:40;8.50;99.90
49236;DHT22;35067;48.134;8.378;2023-08-30T03:37:44;8.40;99.90
49236;DHT22;35067;48.134;8.378;2023-08-30T03:38:45;8.50;99.90
49236;DHT22;35067;48.134;8.378;2023-08-30T03:39:46;8.50;99.90
49236;DHT22;35067;48.134;8.378;2023-08-30T03:40:46;8.50;99.90
49236;DHT22;35067;48.134;8.378;2023-08-30T03:41:53;8.50;99.90
49236;DHT22;35067;48.134;8.378;2023-08-30T03:42:54;8.40;99.90
49236;DHT22;35067;48.134;8.378;2023-08-30T03:43:54;8.40;99.90
49236;DHT22;35067;48.134;8.378;2023-08-30T03:44:55;8.40;99.90
49236;DHT22;35067;48.134;8.378;2023-08-30T03:45:56;8.40;99.90
49236;DHT22;35067;48.134;8.378;2023-08-30T03:46:57;8.30;99.90
49236;DHT22;35067;48.134;8.378;2023-08-30T03:47:57;8.40;99.90
49236;DHT22;35067;48.134;8.378;2023-08-30T03:48:58;8.40;99.90
49236;DHT22;35067;48.134;8.378;2023-08-30T03:49:58;8.40;99.90
49236;DHT22;35067;48.134;8.378;2023-08-30T03:50:59;8.40;99.90
49236;DHT22;35067;48.134;8.378;2023-08-30T03:52:00;8.30;99.90
49236;DHT22;35067;48.134;8.378;2023-08-30T03:53:01;8.30;99.90
49236;DHT22;35067;48.134;8.378;2023-08-30T03:54:02;8.30;99.90
49236;DHT22;35067;48.134;8.378;2023-08-30T03:55:03;8.40;99.90
49236;DHT22;35067;48.134;8.378;2023-08-30T03:56:04;8.40;99.90
49236;DHT22;35067;48.134;8.378;2023-08-30T03:57:04;8.50;99.90
49236;DHT22;35067;48.134;8.378;2023-08-30T03:58:05;8.50;99.90
49236;DHT22;35067;48.134;8.378;2023-08-30T03:59:06;8.60;99.90
49236;DHT22;35067;48.134;8.378;2023-08-30T04:00:08;8.60;99.90
49236;DHT22;35067;48.134;8.378;2023-08-30T04:01:11;8.60;99.90
49236;DHT22;35067;48.134;8.378;2023-08-30T04:02:12;8.70;99.90
49236;DHT22;35067;48.134;8.378;2023-08-30T04:03:14;8.60;99.90
49236;DHT22;35067;48.134;8.378;2023-08-30T04:04:15;8.50;99.90
49236;DHT22;35067;48.134;8.378;2023-08-30T04:05:16;8.50;99.90
49236;DHT22;35067;48.134;8.378;2023-08-30T04:06:17;8.40;99.90
49236;DHT22;35067;48.134;8.378;2023-08-30T04:07:18;8.30;99.90
49236;DHT22;35067;48.134;8.378;2023-08-30T04:08:18;8.30;99.90
49236;DHT22;35067;48.134;8.378;2023-08-30T04:09:19;8.20;99.90
49236;DHT22;35067;48.134;8.378;2023-08-30T04:10:21;8.20;99.90
49236;DHT22;35067;48.134;8.378;2023-08-30T04:11:22;8.20;99.90
49236;DHT22;35067;48.134;8.378;2023-08-30T04:12:23;8.10;99.90
49236;DHT22;35067;48.134;8.378;2023-08-30T04:13:24;8.10;99.90
49236;DHT22;35067;48.134;8.378;2023-08-30T04:14:25;8.00;99.90
49236;DHT22;35067;48.134;8.378;2023-08-30T04:15:26;8.10;99.90
49236;DHT22;35067;48.134;8.378;2023-08-30T04:16:26;8.10;99.90
49236;DHT22;35067;48.134;8.378;2023-08-30T04:17:27;8.10;99.90
49236;DHT22;35067;48.134;8.378;2023-08-30T04:18:28;8.20;99.90
49236;DHT22;35067;48.134;8.378;2023-08-30T04:19:28;8.20;99.90
49236;DHT22;35067;48.134;8.378;2023-08-30T04:20:29;8.20;99.90
49236;DHT22;35067;48.134;8.378;2023-08-30T04:21:30;8.20;99.90
49236;DHT22;35067;48.134;8.378;2023-08-30T04:22:31;8.30;99.90
49236;DHT22;35067;48.134;8.378;2023-08-30T04:23:35;8.30;99.90
49236;DHT22;35067;48.134;8.378;2023-08-30T04:24:36;8.30;99.90
49236;DHT22;35067;48.134;8.378;2023-08-30T04:25:37;8.40;99.90
49236;DHT22;35067;48.134;8.378;2023-08-30T04:26:37;8.40;99.90
49236;DHT22;35067;48.134;8.378;2023-08-30T04:27:38;8.40;99.90
49236;DHT22;35067;48.134;8.378;2023-08-30T04:28:39;8.40;99.90
49236;DHT22;35067;48.134;8.378;2023-08-30T04:29:39;8.50;99.90
49236;DHT22;35067;48.134;8.378;2023-08-30T04:30:40;8.50;99.90
49236;DHT22;35067;48.134;8.378;2023-08-30T04:31:43;8.50;99.90
49236;DHT22;35067;48.134;8.378;2023-08-30T04:32:44;8.50;99.90
49236;DHT22;35067;48.134;8.378;2023-08-30T04:33:44;8.50;99.90
49236;DHT22;35067;48.134;8.378;2023-08-30T04:34:45;8.40;99.90
49236;DHT22;35067;48.134;8.378;2023-08-30T04:35:50;8.50;99.90
49236;DHT22;35067;48.134;8.378;2023-08-30T04:36:52;8.50;99.90
49236;DHT22;35067;48.134;8.378;2023-08-30T04:37:52;8.50;99.90
49236;DHT22;35067;48.134;8.378;2023-08-30T04:38:53;8.50;99.90
49236;DHT22;35067;48.134;8.378;2023-08-30T04:39:54;8.50;99.90
49236;DHT22;35067;48.134;8.378;2023-08-30T04:40:57;8.50;99.90
49236;DHT22;35067;48.134;8.378;2023-08-30T04:41:59;8.50;99.90
49236;DHT22;35067;48.134;8.378;2023-08-30T04:43:01;8.50;99.90
49236;DHT22;35067;48.134;8.378;2023-08-30T04:44:01;8.50;99.90
49236;DHT22;35067;48.134;8.378;2023-08-30T04:45:03;8.40;99.90
49236;DHT22;35067;48.134;8.378;2023-08-30T04:46:06;8.30;99.90
49236;DHT22;35067;48.134;8.378;2023-08-30T04:47:07;8.30;99.90
49236;DHT22;35067;48.134;8.378;2023-08-30T04:48:08;8.20;99.90
49236;DHT22;35067;48.134;8.378;2023-08-30T04:49:09;8.10;99.90
49236;DHT22;35067;48.134;8.378;2023-08-30T04:50:09;7.90;99.90
49236;DHT22;35067;48.134;8.378;2023-08-30T04:51:10;7.80;99.90
49236;DHT22;35067;48.134;8.378;2023-08-30T04:52:11;7.80;99.90
49236;DHT22;35067;48.134;8.378;2023-08-30T04:53:11;7.80;99.90
49236;DHT22;35067;48.134;8.378;2023-08-30T04:54:12;7.80;99.90
49236;DHT22;35067;48.134;8.378;2023-08-30T04:55:14;7.90;99.90
49236;DHT22;35067;48.134;8.378;2023-08-30T04:56:15;8.00;99.90
49236;DHT22;35067;48.134;8.378;2023-08-30T04:57:18;8.10;99.90
49236;DHT22;35067;48.134;8.378;2023-08-30T04:58:19;8.20;99.90
49236;DHT22;35067;48.134;8.378;2023-08-30T04:59:19;8.20;99.90
49236;DHT22;35067;48.134;8.378;2023-08-30T05:00:20;8.30;99.90
49236;DHT22;35067;48.134;8.378;2023-08-30T05:01:21;8.40;99.90
49236;DHT22;35067;48.134;8.378;2023-08-30T05:02:22;8.40;99.90
49236;DHT22;35067;48.134;8.378;2023-08-30T05:03:22;8.50;99.90
49236;DHT22;35067;48.134;8.378;2023-08-30T05:04:24;8.50;99.90
49236;DHT22;35067;48.134;8.378;2023-08-30T05:05:25;8.50;99.90
49236;DHT22;35067;48.134;8.378;2023-08-30T05:06:26;8.50;99.90
49236;DHT22;35067;48.134;8.378;2023-08-30T05:07:27;8.50;99.90
49236;DHT22;35067;48.134;8.378;2023-08-30T05:08:37;8.60;99.90
49236;DHT22;35067;48.134;8.378;2023-08-30T05:09:37;8.60;99.90
49236;DHT22;35067;48.134;8.378;2023-08-30T05:10:40;8.60;99.90
49236;DHT22;35067;48.134;8.378;2023-08-30T05:11:43;8.70;99.90
49236;DHT22;35067;48.134;8.378;2023-08-30T05:12:44;8.70;99.90
49236;DHT22;35067;48.134;8.378;2023-08-30T05:13:50;8.70;99.90
49236;DHT22;35067;48.134;8.378;2023-08-30T05:14:50;8.70;99.90
49236;DHT22;35067;48.134;8.378;2023-08-30T05:15:51;8.60;99.90
49236;DHT22;35067;48.134;8.378;2023-08-30T05:16:52;8.60;99.90
49236;DHT22;35067;48.134;8.378;2023-08-30T05:17:53;8.60;99.90
49236;DHT22;35067;48.134;8.378;2023-08-30T05:18:54;8.50;99.90
49236;DHT22;35067;48.134;8.378;2023-08-30T05:19:55;8.60;99.90
49236;DHT22;35067;48.134;8.378;2023-08-30T05:20:55;8.60;99.90
49236;DHT22;35067;48.134;8.378;2023-08-30T05:21:56;8.70;99.90
49236;DHT22;35067;48.134;8.378;2023-08-30T05:22:57;8.60;99.90
49236;DHT22;35067;48.134;8.378;2023-08-30T05:23:57;8.50;99.90
49236;DHT22;35067;48.134;8.378;2023-08-30T05:24:58;8.50;99.90
49236;DHT22;35067;48.134;8.378;2023-08-30T05:25:59;8.50;99.90
49236;DHT22;35067;48.134;8.378;2023-08-30T05:27:00;8.50;99.90
49236;DHT22;35067;48.134;8.378;2023-08-30T05:28:01;8.60;99.90
49236;DHT22;35067;48.134;8.378;2023-08-30T05:29:02;8.70;99.90
49236;DHT22;35067;48.134;8.378;2023-08-30T05:30:03;8.70;99.90
49236;DHT22;35067;48.134;8.378;2023-08-30T05:31:04;8.80;99.90
49236;DHT22;35067;48.134;8.378;2023-08-30T05:32:06;8.80;99.90
49236;DHT22;35067;48.134;8.378;2023-08-30T05:33:07;8.90;99.90
49236;DHT22;35067;48.134;8.378;2023-08-30T05:34:07;8.90;99.90
49236;DHT22;35067;48.134;8.378;2023-08-30T05:35:08;9.00;99.90
49236;DHT22;35067;48.134;8.378;2023-08-30T05:36:09;9.10;99.90
49236;DHT22;35067;48.134;8.378;2023-08-30T05:37:10;9.10;99.90
49236;DHT22;35067;48.134;8.378;2023-08-30T05:38:10;9.10;99.90
49236;DHT22;35067;48.134;8.378;2023-08-30T05:39:11;9.00;99.90
49236;DHT22;35067;48.134;8.378;2023-08-30T05:40:13;8.90;99.90
49236;DHT22;35067;48.134;8.378;2023-08-30T05:41:17;8.90;99.90
49236;DHT22;35067;48.134;8.378;2023-08-30T05:42:17;9.00;99.90
49236;DHT22;35067;48.134;8.378;2023-08-30T05:43:18;9.00;99.90
49236;DHT22;35067;48.134;8.378;2023-08-30T05:44:19;8.90;99.90
49236;DHT22;35067;48.134;8.378;2023-08-30T05:45:20;8.80;99.90
49236;DHT22;35067;48.134;8.378;2023-08-30T05:46:20;8.70;99.90
49236;DHT22;35067;48.134;8.378;2023-08-30T05:47:21;8.80;99.90
49236;DHT22;35067;48.134;8.378;2023-08-30T05:48:22;8.90;99.90
49236;DHT22;35067;48.134;8.378;2023-08-30T05:49:23;9.10;99.90
49236;DHT22;35067;48.134;8.378;2023-08-30T05:50:23;9.30;99.90
49236;DHT22;35067;48.134;8.378;2023-08-30T05:51:24;9.50;99.90
49236;DHT22;35067;48.134;8.378;2023-08-30T05:52:25;9.60;99.90
49236;DHT22;35067;48.134;8.378;2023-08-30T05:53:25;9.50;99.90
49236;DHT22;35067;48.134;8.378;2023-08-30T05:54:26;9.60;99.90
49236;DHT22;35067;48.134;8.378;2023-08-30T05:55:29;9.70;99.90
49236;DHT22;35067;48.134;8.378;2023-08-30T05:56:30;9.80;99.90
49236;DHT22;35067;48.134;8.378;2023-08-30T05:57:31;9.90;99.90
49236;DHT22;35067;48.134;8.378;2023-08-30T05:58:33;10.00;99.90
49236;DHT22;35067;48.134;8.378;2023-08-30T05:59:34;10.00;99.90
49236;DHT22;35067;48.134;8.378;2023-08-30T06:00:35;10.00;99.90
49236;DHT22;35067;48.134;8.378;2023-08-30T06:01:36;10.00;99.90
49236;DHT22;35067;48.134;8.378;2023-08-30T06:02:37;10.00;99.90
49236;DHT22;35067;48.134;8.378;2023-08-30T06:03:37;10.00;99.90
49236;DHT22;35067;48.134;8.378;2023-08-30T06:04:38;10.00;99.90
49236;DHT22;35067;48.134;8.378;2023-08-30T06:05:39;10.00;99.90
49236;DHT22;35067;48.134;8.378;2023-08-30T06:06:39;10.10;99.90
49236;DHT22;35067;48.134;8.378;2023-08-30T06:07:40;10.10;99.90
49236;DHT22;35067;48.134;8.378;2023-08-30T06:08:41;10.10;99.90
49236;DHT22;35067;48.134;8.378;2023-08-30T06:09:42;10.20;99.90
49236;DHT22;35067;48.134;8.378;2023-08-30T06:10:42;10.20;99.90
49236;DHT22;35067;48.134;8.378;2023-08-30T06:11:43;10.10;99.90
49236;DHT22;35067;48.134;8.378;2023-08-30T06:12:44;10.00;99.90
49236;DHT22;35067;48.134;8.378;2023-08-30T06:13:45;10.00;99.90
49236;DHT22;35067;48.134;8.378;2023-08-30T06:14:45;10.10;99.90
49236;DHT22;35067;48.134;8.378;2023-08-30T06:15:52;10.30;99.90
49236;DHT22;35067;48.134;8.378;2023-08-30T06:16:53;10.30;99.90
49236;DHT22;35067;48.134;8.378;2023-08-30T06:17:53;10.40;99.90
49236;DHT22;35067;48.134;8.378;2023-08-30T06:18:54;10.50;99.90
49236;DHT22;35067;48.134;8.378;2023-08-30T06:19:55;10.60;99.90
49236;DHT22;35067;48.134;8.378;2023-08-30T06:20:55;10.70;99.90
49236;DHT22;35067;48.134;8.378;2023-08-30T06:21:56;10.80;99.90
49236;DHT22;35067;48.134;8.378;2023-08-30T06:22:58;10.90;99.90
49236;DHT22;35067;48.134;8.378;2023-08-30T06:23:59;11.00;99.90
49236;DHT22;35067;48.134;8.378;2023-08-30T06:25:00;11.00;99.90
49236;DHT22;35067;48.134;8.378;2023-08-30T06:26:00;11.10;99.90
49236;DHT22;35067;48.134;8.378;2023-08-30T06:27:03;11.10;99.90
49236;DHT22;35067;48.134;8.378;2023-08-30T06:28:04;11.20;99.90
49236;DHT22;35067;48.134;8.378;2023-08-30T06:29:05;11.20;99.90
49236;DHT22;35067;48.134;8.378;2023-08-30T06:30:06;11.20;99.90
49236;DHT22;35067;48.134;8.378;2023-08-30T06:31:07;11.40;99.90
49236;DHT22;35067;48.134;8.378;2023-08-30T06:32:08;11.50;99.90
49236;DHT22;35067;48.134;8.378;2023-08-30T06:33:09;11.60;99.90
49236;DHT22;35067;48.134;8.378;2023-08-30T06:34:10;11.70;99.90
49236;DHT22;35067;48.134;8.378;2023-08-30T06:35:10;11.70;99.90
49236;DHT22;35067;48.134;8.378;2023-08-30T06:36:13;11.70;99.90
49236;DHT22;35067;48.134;8.378;2023-08-30T06:37:16;11.80;99.90
49236;DHT22;35067;48.134;8.378;2023-08-30T06:38:17;11.90;99.90
49236;DHT22;35067;48.134;8.378;2023-08-30T06:39:18;12.00;99.90